createdAt,value
2022-11-24T00:01:15.549Z,1.34
2022-11-24T00:03:44.102Z,1.36
2022-11-24T00:06:14.026Z,1.43
2022-11-24T00:08:43.576Z,1.43
2022-11-24T00:11:13.004Z,1.41
2022-11-24T00:13:40.866Z,1.43
2022-11-24T00:16:11.592Z,1.40
2022-11-24T00:18:42.289Z,1.41
2022-11-24T00:21:10.661Z,1.42
2022-11-24T00:23:39.196Z,1.39
2022-11-24T00:26:09.164Z,1.43
2022-11-24T00:28:38.177Z,1.34
2022-11-24T00:31:17.194Z,1.38
2022-11-24T00:33:47.879Z,1.40
2022-11-24T00:36:17.248Z,1.40
2022-11-24T00:38:45.523Z,1.39
2022-11-24T00:41:13.665Z,1.38
2022-11-24T00:43:41.496Z,1.41
2022-11-24T00:46:09.496Z,1.41
2022-11-24T00:48:37.417Z,1.40
2022-11-24T00:51:09.417Z,1.37
2022-11-24T00:53:37.420Z,1.39
2022-11-24T00:56:05.940Z,1.39
2022-11-24T00:58:34.471Z,1.41
2022-11-24T01:01:07.117Z,1.44
2022-11-24T01:03:35.302Z,1.41
2022-11-24T01:06:09.742Z,1.44
2022-11-24T01:08:38.790Z,1.43
2022-11-24T01:11:11.509Z,1.45
2022-11-24T01:13:39.640Z,1.45
2022-11-24T01:16:08.377Z,1.45
2022-11-24T01:18:36.274Z,1.47
2022-11-24T01:21:10.253Z,1.42
2022-11-24T01:23:38.325Z,1.38
2022-11-24T01:26:07.115Z,1.37
2022-11-24T01:28:35.653Z,1.34
2022-11-24T01:31:05.293Z,1.40
2022-11-24T01:33:33.982Z,1.36
2022-11-24T01:36:02.261Z,1.32
2022-11-24T01:38:31.554Z,1.31
2022-11-24T01:41:03.569Z,1.33
2022-11-24T01:43:31.584Z,1.28
2022-11-24T01:46:03.781Z,1.21
2022-11-24T01:48:37.621Z,1.27
2022-11-24T01:51:09.465Z,1.30
2022-11-24T01:53:43.034Z,1.28
2022-11-24T01:56:12.152Z,1.35
2022-11-24T01:58:43.729Z,1.42
2022-11-24T02:01:12.244Z,1.39
2022-11-24T02:03:43.104Z,1.32
2022-11-24T02:06:14.168Z,1.40
2022-11-24T02:08:48.709Z,1.37
2022-11-24T02:11:16.756Z,1.29
2022-11-24T02:13:46.684Z,1.26
2022-11-24T02:16:14.562Z,1.28
2022-11-24T02:18:43.561Z,1.27
2022-11-24T02:21:13.972Z,1.28
2022-11-24T02:23:50.968Z,1.16
2022-11-24T02:26:30.724Z,1.17
2022-11-24T02:28:58.782Z,1.34
2022-11-24T02:31:26.990Z,1.18
2022-11-24T02:33:55.858Z,1.18
2022-11-24T02:36:23.702Z,1.11
2022-11-24T02:38:51.513Z,1.19
2022-11-24T02:41:22.899Z,1.25
2022-11-24T02:43:55.927Z,1.17
2022-11-24T02:46:23.744Z,1.13
2022-11-24T02:48:51.581Z,1.12
2022-11-24T02:51:19.429Z,1.09
2022-11-24T02:53:47.318Z,1.18
2022-11-24T02:56:15.304Z,1.12
2022-11-24T02:58:43.097Z,1.10
2022-11-24T03:01:12.325Z,1.05
2022-11-24T03:03:40.388Z,1.07
2022-11-24T03:06:08.169Z,1.20
2022-11-24T03:08:35.937Z,1.16
2022-11-24T03:11:04.627Z,1.21
2022-11-24T03:13:32.385Z,1.16
2022-11-24T03:16:00.305Z,1.15
2022-11-24T03:18:29.522Z,1.07
2022-11-24T03:21:00.963Z,1.07
2022-11-24T03:23:28.920Z,1.08
2022-11-24T03:25:56.669Z,1.14
2022-11-24T03:28:24.452Z,1.16
2022-11-24T03:30:52.242Z,1.16
2022-11-24T03:33:20.178Z,1.14
2022-11-24T03:35:49.411Z,1.09
2022-11-24T03:38:17.253Z,1.10
2022-11-24T03:40:45.081Z,1.09
2022-11-24T03:43:12.945Z,0.98
2022-11-24T03:45:48.047Z,0.96
2022-11-24T03:48:16.484Z,0.95
2022-11-24T03:50:44.824Z,1.03
2022-11-24T03:53:14.036Z,0.99
2022-11-24T03:55:44.348Z,0.89
2022-11-24T03:58:12.184Z,0.85
2022-11-24T04:00:40.997Z,0.91
2022-11-24T04:03:08.905Z,0.85
2022-11-24T04:05:37.037Z,0.92
2022-11-24T04:08:05.352Z,0.90
2022-11-24T04:10:36.834Z,0.92
2022-11-24T04:13:04.232Z,0.92
2022-11-24T04:15:32.112Z,0.88
2022-11-24T04:17:59.781Z,0.84
2022-11-24T04:20:27.633Z,0.83
2022-11-24T04:22:55.346Z,0.84
2022-11-24T04:25:22.997Z,0.85
2022-11-24T04:27:54.067Z,0.90
2022-11-24T04:30:22.968Z,0.92
2022-11-24T04:32:51.183Z,0.85
2022-11-24T04:35:19.434Z,0.89
2022-11-24T04:37:47.197Z,0.88
2022-11-24T04:40:15.736Z,0.88
2022-11-24T04:42:43.511Z,0.91
2022-11-24T04:45:13.009Z,0.89
2022-11-24T04:47:40.661Z,0.85
2022-11-24T04:50:09.931Z,0.81
2022-11-24T04:52:37.615Z,0.82
2022-11-24T04:55:05.540Z,0.85
2022-11-24T04:57:33.284Z,0.80
2022-11-24T05:00:00.957Z,0.80
2022-11-24T05:02:30.022Z,0.83
2022-11-24T05:04:57.701Z,0.82
2022-11-24T05:07:25.400Z,0.82
2022-11-24T05:10:10.817Z,0.82
2022-11-24T05:12:39.567Z,0.83
2022-11-24T05:15:08.194Z,0.72
2022-11-24T05:17:39.156Z,0.75
2022-11-24T05:20:08.662Z,0.60
2022-11-24T05:22:36.462Z,0.65
2022-11-24T05:25:04.506Z,0.69
2022-11-24T05:27:32.118Z,0.55
2022-11-24T05:29:59.792Z,0.54
2022-11-24T05:32:27.595Z,0.60
2022-11-24T05:34:56.779Z,0.61
2022-11-24T05:37:25.548Z,0.55
2022-11-24T05:39:54.501Z,0.55
2022-11-24T05:42:44.871Z,0.48
2022-11-24T05:45:16.401Z,0.36
2022-11-24T05:47:44.133Z,0.40
2022-11-24T05:50:16.121Z,0.49
2022-11-24T05:52:43.939Z,0.43
2022-11-24T05:55:14.574Z,0.47
2022-11-24T05:57:42.744Z,0.46
2022-11-24T06:00:11.873Z,0.49
2022-11-24T06:02:39.676Z,0.36
2022-11-24T06:05:08.103Z,0.40
2022-11-24T06:07:37.376Z,0.52
2022-11-24T06:10:05.830Z,0.47
2022-11-24T06:12:33.510Z,0.50
2022-11-24T06:15:01.132Z,0.47
2022-11-24T06:17:29.092Z,0.49
2022-11-24T06:19:56.734Z,0.54
2022-11-24T06:22:24.382Z,0.54
2022-11-24T06:24:53.447Z,0.54
2022-11-24T06:27:21.090Z,0.55
2022-11-24T06:29:48.799Z,0.55
2022-11-24T06:32:17.011Z,0.57
2022-11-24T06:34:44.683Z,0.55
2022-11-24T06:37:12.347Z,0.47
2022-11-24T06:39:39.936Z,0.39
2022-11-24T06:42:08.996Z,0.34
2022-11-24T06:44:36.759Z,0.33
2022-11-24T06:47:04.572Z,0.41
2022-11-24T06:49:32.188Z,0.41
2022-11-24T06:51:59.808Z,0.39
2022-11-24T06:54:27.466Z,0.38
2022-11-24T06:56:57.445Z,0.33
2022-11-24T06:59:27.656Z,0.47
2022-11-24T07:01:55.337Z,0.47
2022-11-24T07:04:22.961Z,0.47
2022-11-24T07:06:50.666Z,0.33
2022-11-24T07:09:18.317Z,0.36
2022-11-24T07:11:46.013Z,0.38
2022-11-24T07:14:13.655Z,0.36
2022-11-24T07:16:43.155Z,0.34
2022-11-24T07:19:11.074Z,0.42
2022-11-24T07:21:38.704Z,0.40
2022-11-24T07:24:07.093Z,0.51
2022-11-24T07:26:37.156Z,0.45
2022-11-24T07:29:05.783Z,0.42
2022-11-24T07:31:33.570Z,0.39
2022-11-24T07:34:02.634Z,0.39
2022-11-24T07:36:30.294Z,0.39
2022-11-24T07:38:58.127Z,0.47
2022-11-24T07:41:25.805Z,0.42
2022-11-24T07:43:53.422Z,0.47
2022-11-24T07:46:21.511Z,0.53
2022-11-24T07:48:49.159Z,0.52
2022-11-24T07:51:18.281Z,0.49
2022-11-24T07:53:46.627Z,0.50
2022-11-24T07:56:14.247Z,0.47
2022-11-24T07:58:41.919Z,0.41
2022-11-24T08:01:11.880Z,0.27
2022-11-24T08:03:39.681Z,0.30
2022-11-24T08:06:23.616Z,0.33
2022-11-24T08:08:54.394Z,0.37
2022-11-24T08:11:22.339Z,0.38
2022-11-24T08:13:49.982Z,0.38
2022-11-24T08:16:19.739Z,0.31
2022-11-24T08:18:51.438Z,0.34
2022-11-24T08:21:19.434Z,0.49
2022-11-24T08:23:47.262Z,0.59
2022-11-24T08:26:19.227Z,0.66
2022-11-24T08:28:47.989Z,0.65
2022-11-24T08:31:18.673Z,0.65
2022-11-24T08:33:46.974Z,0.67
2022-11-24T08:36:15.995Z,0.75
2022-11-24T08:38:45.187Z,0.67
2022-11-24T08:41:15.152Z,0.68
2022-11-24T08:43:44.738Z,0.73
2022-11-24T08:46:16.809Z,0.64
2022-11-24T08:48:45.478Z,0.62
2022-11-24T08:51:14.724Z,0.67
2022-11-24T08:53:43.100Z,0.71
2022-11-24T08:56:12.863Z,0.81
2022-11-24T08:58:41.541Z,0.79
2022-11-24T09:01:12.225Z,0.91
2022-11-24T09:03:43.497Z,0.88
2022-11-24T09:06:16.606Z,0.84
2022-11-24T09:08:44.384Z,0.85
2022-11-24T09:11:14.048Z,0.82
2022-11-24T09:13:41.920Z,0.90
2022-11-24T09:16:12.885Z,0.87
2022-11-24T09:18:40.854Z,0.94
2022-11-24T09:21:09.255Z,0.94
2022-11-24T09:23:37.291Z,0.93
2022-11-24T09:26:06.518Z,1.06
2022-11-24T09:28:34.351Z,1.03
2022-11-24T09:31:03.241Z,1.04
2022-11-24T09:33:33.638Z,1.07
2022-11-24T09:36:01.668Z,1.02
2022-11-24T09:38:29.640Z,1.12
2022-11-24T09:40:57.671Z,1.09
2022-11-24T09:43:33.839Z,1.02
2022-11-24T09:46:09.798Z,1.09
2022-11-24T09:48:41.825Z,1.11
2022-11-24T09:51:12.992Z,1.07
2022-11-24T09:53:45.583Z,1.11
2022-11-24T09:56:20.722Z,1.09
2022-11-24T09:58:50.630Z,1.14
2022-11-24T10:01:20.653Z,1.14
2022-11-24T10:03:51.563Z,1.15
2022-11-24T10:06:23.730Z,1.19
2022-11-24T10:09:25.477Z,1.27
2022-11-24T10:12:03.270Z,1.45
2022-11-24T10:14:54.863Z,1.58
2022-11-24T10:17:39.363Z,1.50
2022-11-24T10:20:13.922Z,1.48
2022-11-24T10:22:52.583Z,1.51
2022-11-24T10:25:25.822Z,1.70
2022-11-24T10:27:59.811Z,1.58
2022-11-24T10:30:28.073Z,1.56
2022-11-24T10:32:59.510Z,1.60
2022-11-24T10:35:31.854Z,1.63
2022-11-24T10:38:08.621Z,1.71
2022-11-24T10:40:56.647Z,1.72
2022-11-24T10:43:27.355Z,1.72
2022-11-24T10:45:56.218Z,1.75
2022-11-24T10:48:27.203Z,1.79
2022-11-24T10:51:06.594Z,1.80
2022-11-24T10:53:36.581Z,1.82
2022-11-24T10:56:06.270Z,1.93
2022-11-24T10:58:38.058Z,1.94
2022-11-24T11:01:22.190Z,1.95
2022-11-24T11:03:52.455Z,1.97
2022-11-24T11:06:24.564Z,1.99
2022-11-24T11:09:17.583Z,2.04
2022-11-24T11:11:46.980Z,2.07
2022-11-24T11:14:29.074Z,2.10
2022-11-24T11:16:58.249Z,2.09
2022-11-24T11:19:48.826Z,2.14
2022-11-24T11:22:25.773Z,2.20
2022-11-24T11:25:05.669Z,2.18
2022-11-24T11:27:33.329Z,2.22
2022-11-24T11:36:11.789Z,2.36
2022-11-24T11:38:42.351Z,2.36
2022-11-24T11:41:14.990Z,2.39
2022-11-24T11:43:45.734Z,2.50
2022-11-24T11:46:15.582Z,2.47
2022-11-24T11:48:46.711Z,2.48
2022-11-24T11:51:40.150Z,2.47
2022-11-24T11:54:17.820Z,2.42
2022-11-24T11:56:48.911Z,2.42
2022-11-24T11:59:38.923Z,2.49
2022-11-24T12:02:50.036Z,2.54
2022-11-24T12:05:29.993Z,2.52
2022-11-24T12:08:20.799Z,2.53
2022-11-24T12:10:57.448Z,2.49
2022-11-24T12:13:52.403Z,2.51
2022-11-24T12:16:33.279Z,2.51
2022-11-24T12:19:15.647Z,2.48
2022-11-24T12:21:53.116Z,2.45
2022-11-24T12:24:31.146Z,2.61
2022-11-24T12:27:05.064Z,2.64
2022-11-24T12:29:53.192Z,2.74
2022-11-24T12:32:38.775Z,2.82
2022-11-24T12:35:18.064Z,2.86
2022-11-24T12:37:59.057Z,2.97
2022-11-24T12:40:46.633Z,3.01
2022-11-24T12:43:23.948Z,3.08
2022-11-24T12:46:00.419Z,3.17
2022-11-24T12:48:44.004Z,3.32
2022-11-24T12:51:18.386Z,3.30
2022-11-24T12:53:47.515Z,3.21
2022-11-24T12:56:17.798Z,3.17
2022-11-24T12:58:55.484Z,3.16
2022-11-24T13:01:32.196Z,3.12
2022-11-24T13:04:13.251Z,3.12
2022-11-24T13:06:51.708Z,3.13
2022-11-24T13:09:19.983Z,3.11
2022-11-24T13:11:49.182Z,3.12
2022-11-24T13:14:21.620Z,3.09
2022-11-24T13:19:43.335Z,3.08
2022-11-24T13:22:16.364Z,3.13
2022-11-24T13:24:45.388Z,3.19
2022-11-24T13:27:39.944Z,3.21
2022-11-24T13:30:49.649Z,3.23
2022-11-24T13:33:31.773Z,3.27
2022-11-24T13:36:30.819Z,3.28
2022-11-24T13:38:59.467Z,3.28
2022-11-24T13:42:10.389Z,3.26
2022-11-24T13:44:59.483Z,3.26
2022-11-24T13:47:38.817Z,3.26
2022-11-24T13:50:10.997Z,3.25
2022-11-24T13:52:43.522Z,3.24
2022-11-24T13:55:24.310Z,3.22
2022-11-24T13:57:54.361Z,3.22
2022-11-24T14:00:23.762Z,3.21
2022-11-24T14:02:52.454Z,3.24
2022-11-24T14:05:28.418Z,3.24
2022-11-24T14:07:56.200Z,3.25
2022-11-24T14:10:31.944Z,3.26
2022-11-24T14:13:17.912Z,3.25
2022-11-24T14:15:45.917Z,3.26
2022-11-24T14:18:22.698Z,3.25
2022-11-24T14:20:51.943Z,3.17
2022-11-24T14:23:19.727Z,3.12
2022-11-24T14:25:49.431Z,3.08
2022-11-24T14:28:23.949Z,3.14
2022-11-24T14:30:51.780Z,3.09
2022-11-24T14:33:21.082Z,3.21
2022-11-24T14:35:51.867Z,3.10
2022-11-24T14:38:19.518Z,3.13
2022-11-24T14:40:49.694Z,3.06
2022-11-24T14:43:21.563Z,3.10
2022-11-24T14:45:54.275Z,3.10
2022-11-24T14:48:28.734Z,3.18
2022-11-24T14:51:08.974Z,3.13
2022-11-24T14:53:37.197Z,3.05
2022-11-24T14:56:09.784Z,2.99
2022-11-24T14:58:42.035Z,2.99
2022-11-24T15:01:19.496Z,2.94
2022-11-24T15:03:47.757Z,2.94
2022-11-24T15:06:20.366Z,2.98
2022-11-24T15:08:50.235Z,3.00
2022-11-24T15:11:17.967Z,3.09
2022-11-24T15:13:55.331Z,2.99
2022-11-24T15:16:26.031Z,2.98
2022-11-24T15:19:00.200Z,2.98
2022-11-24T15:21:34.296Z,3.01
2022-11-24T15:24:17.197Z,2.96
2022-11-24T15:26:45.828Z,2.98
2022-11-24T15:29:14.142Z,2.97
2022-11-24T15:31:46.455Z,2.98
2022-11-24T15:34:18.867Z,2.95
2022-11-24T15:36:48.167Z,2.91
2022-11-24T15:39:16.132Z,2.86
2022-11-24T15:41:44.164Z,2.89
2022-11-24T15:44:12.118Z,2.94
2022-11-24T15:46:40.125Z,2.95
2022-11-24T15:49:08.156Z,2.95
2022-11-24T15:51:40.367Z,2.96
2022-11-24T15:54:14.756Z,2.95
2022-11-24T15:56:44.376Z,3.00
2022-11-24T15:59:20.253Z,3.02
2022-11-24T16:01:50.674Z,2.98
2022-11-24T16:04:18.936Z,2.98
2022-11-24T16:06:46.686Z,3.00
2022-11-24T16:09:17.743Z,2.98
2022-11-24T16:11:45.595Z,2.97
2022-11-24T16:14:13.563Z,2.96
2022-11-24T16:16:41.891Z,2.96
2022-11-24T16:19:10.104Z,2.95
2022-11-24T16:21:38.004Z,2.91
2022-11-24T16:24:06.247Z,2.98
2022-11-24T16:26:35.551Z,2.91
2022-11-24T16:29:03.542Z,2.86
2022-11-24T16:31:31.571Z,2.89
2022-11-24T16:33:59.577Z,2.94
2022-11-24T16:36:28.342Z,2.97
2022-11-24T16:38:56.219Z,2.97
2022-11-24T16:41:23.900Z,2.90
2022-11-24T16:43:53.742Z,2.87
2022-11-24T16:46:24.032Z,2.80
2022-11-24T16:48:54.936Z,2.81
2022-11-24T16:51:24.270Z,2.87
2022-11-24T16:53:58.260Z,2.90
2022-11-24T16:56:26.399Z,2.83
2022-11-24T16:58:55.870Z,2.82
2022-11-24T17:01:23.962Z,2.80
2022-11-24T17:03:51.704Z,2.78
2022-11-24T17:06:20.120Z,2.81
2022-11-24T17:08:48.381Z,2.80
2022-11-24T17:11:17.991Z,2.75
2022-11-24T17:13:47.008Z,2.71
2022-11-24T17:16:17.667Z,2.69
2022-11-24T17:18:45.884Z,2.64
2022-11-24T17:21:15.327Z,2.60
2022-11-24T17:23:43.008Z,2.65
2022-11-24T17:26:13.701Z,2.63
2022-11-24T17:28:42.307Z,2.67
2022-11-24T17:31:18.714Z,2.69
2022-11-24T17:33:46.391Z,2.69
2022-11-24T17:36:14.005Z,2.67
2022-11-24T17:38:41.667Z,2.67
2022-11-24T17:41:09.490Z,2.66
2022-11-24T17:43:37.100Z,2.66
2022-11-24T17:46:06.261Z,2.65
2022-11-24T17:48:36.524Z,2.61
2022-11-24T17:51:07.731Z,2.65
2022-11-24T17:53:37.420Z,2.66
2022-11-24T17:56:05.359Z,2.71
2022-11-24T17:58:38.314Z,2.73
2022-11-24T18:01:09.331Z,2.73
2022-11-24T18:03:39.771Z,2.84
2022-11-24T18:06:08.290Z,2.92
2022-11-24T18:08:36.213Z,2.82
2022-11-24T18:11:04.929Z,2.78
2022-11-24T18:13:55.339Z,2.73
2022-11-24T18:16:20.524Z,2.72
2022-11-24T18:18:51.070Z,2.72
2022-11-24T18:21:18.910Z,2.70
2022-11-24T18:23:47.194Z,2.73
2022-11-24T18:26:16.518Z,2.72
2022-11-24T18:28:44.797Z,2.73
2022-11-24T18:31:14.261Z,2.75
2022-11-24T18:33:43.954Z,2.71
2022-11-24T18:36:14.801Z,2.67
2022-11-24T18:38:42.484Z,2.65
2022-11-24T18:41:11.618Z,2.65
2022-11-24T18:43:39.250Z,2.63
2022-11-24T18:46:08.724Z,2.63
2022-11-24T18:48:36.836Z,2.63
2022-11-24T18:51:05.050Z,2.64
2022-11-24T18:53:34.018Z,2.60
2022-11-24T18:56:03.614Z,2.63
2022-11-24T18:58:32.899Z,2.60
2022-11-24T19:01:07.909Z,2.61
2022-11-24T19:03:39.121Z,2.60
2022-11-24T19:06:13.147Z,2.54
2022-11-24T19:08:42.238Z,2.55
2022-11-24T19:11:17.605Z,2.57
2022-11-24T19:13:45.250Z,2.58
2022-11-24T19:16:13.312Z,2.59
2022-11-24T19:18:41.026Z,2.58
2022-11-24T19:21:08.882Z,2.62
2022-11-24T19:23:36.536Z,2.64
2022-11-24T19:26:06.934Z,2.63
2022-11-24T19:28:34.923Z,2.63
2022-11-24T19:31:02.820Z,2.64
2022-11-24T19:33:30.705Z,2.61
2022-11-24T19:36:03.608Z,2.64
2022-11-24T19:38:32.762Z,2.62
2022-11-24T19:41:06.436Z,2.58
2022-11-24T19:43:34.818Z,2.61
2022-11-24T19:46:02.998Z,2.67
2022-11-24T19:48:34.648Z,2.65
2022-11-24T19:51:03.230Z,2.63
2022-11-24T19:53:31.710Z,2.61
2022-11-24T19:56:05.889Z,2.64
2022-11-24T19:58:33.895Z,2.62
2022-11-24T20:01:07.873Z,2.61
2022-11-24T20:03:35.771Z,2.62
2022-11-24T20:06:03.724Z,2.53
2022-11-24T20:08:34.015Z,2.62
2022-11-24T20:11:06.971Z,2.55
2022-11-24T20:13:35.950Z,2.52
2022-11-24T20:16:04.842Z,2.49
2022-11-24T20:18:37.581Z,2.48
2022-11-24T20:21:10.960Z,2.44
2022-11-24T20:23:39.040Z,2.46
2022-11-24T20:26:10.011Z,2.38
2022-11-24T20:28:37.699Z,2.36
2022-11-24T20:31:07.460Z,2.36
2022-11-24T20:33:35.655Z,2.35
2022-11-24T20:36:05.980Z,2.30
2022-11-24T20:38:34.420Z,2.27
2022-11-24T20:41:08.747Z,2.24
2022-11-24T20:43:38.556Z,2.17
2022-11-24T20:46:08.294Z,2.13
2022-11-24T20:48:36.776Z,2.09
2022-11-24T20:51:07.143Z,2.06
2022-11-24T20:53:35.835Z,2.07
2022-11-24T20:56:06.033Z,2.02
2022-11-24T20:58:34.841Z,2.04
2022-11-24T21:01:08.639Z,2.08
2022-11-24T21:03:42.622Z,2.07
2022-11-24T21:06:12.292Z,2.09
2022-11-24T21:08:41.981Z,2.10
2022-11-24T21:11:12.038Z,2.09
2022-11-24T21:13:40.868Z,2.10
2022-11-24T21:16:17.774Z,2.07
2022-11-24T21:18:46.850Z,2.03
2022-11-24T21:21:15.297Z,1.97
2022-11-24T21:23:44.940Z,1.96
2022-11-24T21:26:16.817Z,1.95
2022-11-24T21:28:46.754Z,1.95
2022-11-24T21:31:17.751Z,1.91
2022-11-24T21:33:47.431Z,1.89
2022-11-24T21:36:16.439Z,1.91
2022-11-24T21:38:44.675Z,1.95
2022-11-24T21:41:13.894Z,1.95
2022-11-24T21:43:41.683Z,1.95
2022-11-24T21:46:11.175Z,1.97
2022-11-24T21:48:41.653Z,1.91
2022-11-24T21:51:11.374Z,1.85
2022-11-24T21:53:39.128Z,1.82
2022-11-24T21:56:09.689Z,1.78
2022-11-24T21:58:37.190Z,1.81
2022-11-24T22:01:08.716Z,1.85
2022-11-24T22:03:36.458Z,1.89
2022-11-24T22:06:05.733Z,1.93
2022-11-24T22:08:33.701Z,1.94
2022-11-24T22:11:02.078Z,1.91
2022-11-24T22:13:29.976Z,1.91
2022-11-24T22:16:05.155Z,1.92
2022-11-24T22:18:34.205Z,1.92
2022-11-24T22:21:02.734Z,1.93
2022-11-24T22:23:32.412Z,1.95
2022-11-24T22:26:03.851Z,1.98
2022-11-24T22:28:32.974Z,1.99
2022-11-24T22:31:05.355Z,2.02
2022-11-24T22:33:33.238Z,2.03
2022-11-24T22:36:02.022Z,2.04
2022-11-24T22:38:30.881Z,2.02
2022-11-24T22:41:03.758Z,2.01
2022-11-24T22:43:33.187Z,1.97
2022-11-24T22:46:04.565Z,1.96
2022-11-24T22:48:32.280Z,1.98
2022-11-24T22:51:04.252Z,2.01
2022-11-24T22:53:32.113Z,2.04
2022-11-24T22:56:04.327Z,2.05
2022-11-24T22:58:32.857Z,2.08
2022-11-24T23:01:05.359Z,2.11
2022-11-24T23:03:33.670Z,2.11
2022-11-24T23:06:01.673Z,2.11
2022-11-24T23:08:29.346Z,2.12
2022-11-24T23:11:00.752Z,2.14
2022-11-24T23:13:29.828Z,2.21
2022-11-24T23:16:01.537Z,2.21
2022-11-24T23:18:29.577Z,2.19
2022-11-24T23:20:57.503Z,2.20
2022-11-24T23:23:25.151Z,2.21
2022-11-24T23:25:52.782Z,2.21
2022-11-24T23:28:20.455Z,2.23
2022-11-24T23:30:49.429Z,2.25
2022-11-24T23:33:17.080Z,2.25
2022-11-24T23:35:44.735Z,2.23
2022-11-24T23:38:12.380Z,2.26
2022-11-24T23:40:39.983Z,2.24
2022-11-24T23:43:07.570Z,2.27
2022-11-24T23:45:35.247Z,2.28
2022-11-24T23:48:04.375Z,2.29
2022-11-24T23:50:32.063Z,2.28
2022-11-24T23:52:59.728Z,2.29
2022-11-24T23:55:27.395Z,2.33
2022-11-24T23:57:55.056Z,2.38
